South Franklin, Vermont
Current Conditions -  °F | °C
As of 7:35 AM on Thursday 23 Oct 2014 (Local Time) from KFSO Reporting Station
Overcast Overcast  
Wind Chill: 35°   Ceiling: 6500
Heat Index: 42°   Visibility: 10mi
Dew Point: 37°   Wind: 14mph
Humidity: 81%   Direction: 360°N
Pressure: 30.01"   Gusts: 18mph
Location:  44.8764°N, 72.758°W
Report Text: KFSO 231135Z AUTO 36012G16KT 10SM BKN065 OVC110 06/03 A3001 RMK AO2 T00560025
Loading
Personal Weather Stations






























Interactive Weather Map
Tropical Storm Tracking
New forecast layout! Learn more

10-Day Weather Forecast

Advertisements
Track Severe Weather on mobile